CheckWX is a tool to help pilots better visualize weather data.  It is not intended as a substitute for an official pre-flight weather briefing.

19:14:25 UTC

DXXX METAR
Lomé-Tokoin Airport
Lomé, Togo
Current

1 hour ago

DXXX 261800Z 20010KT 9999 FEW014 FEW020CB 29/25 Q1010 TEMPO TS
Observed
May-26 @ 18:00 UTC
Wind
  • 200° at 10 KTS
Visibility
10,000+ meters
Flight Rules
VFR
Cloud Levels
  • Few at 1,400' AGL
  • Few at 2,000' AGL
Temperature
29°C / 84°F
Dewpoint
25°C / 77°F
Heat Index
34°C / 94°F
Humidity
79%
Altimeter
29.82" Hg
Pressure
1009.92 hPa
Previous

2 hours ago

DXXX 261700Z 21012KT 9999 FEW014 FEW020CB 29/26 Q1009 NOSIG
Observed
May-26 @ 17:00 UTC
Wind
  • 210° at 12 KTS
Visibility
10,000+ meters
Flight Rules
VFR
Cloud Levels
  • Few at 1,400' AGL
  • Few at 2,000' AGL
Temperature
29°C / 84°F
Dewpoint
26°C / 79°F
Heat Index
36°C / 96°F
Humidity
84%
Altimeter
29.79" Hg
Pressure
1008.92 hPa
Previous

3 hours ago

DXXX 261600Z 21010KT 180V240 9999 FEW014 FEW020CB 31/26 Q1009 NOSIG
Observed
May-26 @ 16:00 UTC
Wind
  • 210° at 10 KTS
Visibility
10,000+ meters
Flight Rules
VFR
Cloud Levels
  • Few at 1,400' AGL
  • Few at 2,000' AGL
Temperature
31°C / 88°F
Dewpoint
26°C / 79°F
Heat Index
39°C / 103°F
Humidity
75%
Altimeter
29.79" Hg
Pressure
1008.92 hPa